Overview Statistics Trail Chart Weather Telemetry Raw packets
 

This is the latest recevied weather packets stored in our database for station/object NO9B. If no packets are shown the sender has not sent any weather packets the latest 10 day(s).

<< 80 81 82 83 84 85 86 >>
Time Temp. Humidity Pressure Rain* Wind** Luminosity Snow
1788116145 28.33° C 65% 1015 hPa 0 mm - 406 W/m² -
1788115841 28.33° C 64% 1014.8 hPa 0 mm - 491 W/m² -
1788115540 27.78° C 65% 1015 hPa 0 mm - 496 W/m² -
1788115234 28.33° C 65% 1014.9 hPa 0 mm - 164 W/m² -
1788114929 28.33° C 66% 1014.9 hPa 0 mm - 106 W/m² -
1788114630 28.33° C 64% 1014.5 hPa 0 mm - 90 W/m² -
1788114320 28.89° C 62% 1014.5 hPa 0 mm - 113 W/m² -
1788114017 28.89° C 62% 1014.4 hPa 0 mm - 409 W/m² -
1788113713 28.89° C 61% 1014.3 hPa 0 mm - 525 W/m² -
1788113412 29.44° C 61% 1014.5 hPa 0 mm - 177 W/m² -
1788113106 30° C 59% 1014 hPa 0 mm - 229 W/m² -
1788112805 30° C 61% 1014 hPa 0 mm - 233 W/m² -
1788112505 30° C 59% 1013.9 hPa 0 mm - 255 W/m² -
1788112200 30.56° C 59% 1013.8 hPa 0 mm - 330 W/m² -
1788111896 30° C 59% 1013.7 hPa 0 mm - 607 W/m² -
1788111595 30.56° C 60% 1013.9 hPa 0 mm - 137 W/m² -
1788111291 30° C 58% 1014 hPa 0 mm - 575 W/m² -
1788110987 30.56° C 60% 1013.8 hPa 0 mm - 608 W/m² -
1788110683 30.56° C 59% 1013.9 hPa 0 mm - 623 W/m² -
1788110378 30.56° C 59% 1013.9 hPa 0 mm - 268 W/m² -
1788110074 30.56° C 63% 1013.9 hPa 0 mm - 480 W/m² -
1788109774 30° C 62% 1014 hPa 0 mm - 545 W/m² -
1788109474 30° C 61% 1013.8 hPa 0 mm - 557 W/m² -
1788109172 30° C 65% 1014.1 hPa 0 mm - 537 W/m² -
1788108869 29.44° C 60% 1014.1 hPa 0 mm - 508 W/m² -

* Rain latest hour (hover to see other rain measurements)
** Current wind speed in m/s (hover to see current wind gust speed)